createdAt,value
2018-04-29T00:00:21.996Z,16.71
2018-04-29T00:00:48.136Z,16.79
2018-04-29T00:01:14.272Z,16.78
2018-04-29T00:01:40.417Z,16.78
2018-04-29T00:02:06.552Z,16.79
2018-04-29T00:02:32.688Z,16.9
2018-04-29T00:02:58.891Z,16.89
2018-04-29T00:03:25.022Z,16.9
2018-04-29T00:03:51.157Z,16.91
2018-04-29T00:04:17.335Z,16.93
2018-04-29T00:04:43.441Z,16.89
2018-04-29T00:05:09.574Z,16.99
2018-04-29T00:05:35.739Z,17.02
2018-04-29T00:06:01.873Z,17.01
2018-04-29T00:06:28.023Z,17.06
2018-04-29T00:06:54.178Z,16.96
2018-04-29T00:07:20.309Z,17.08
2018-04-29T00:07:46.475Z,17.08
2018-04-29T00:08:12.610Z,16.97
2018-04-29T00:08:38.757Z,17.09
2018-04-29T00:09:04.899Z,17.08
2018-04-29T00:09:31.035Z,17.04
2018-04-29T00:09:57.180Z,16.96
2018-04-29T00:10:23.320Z,17.08
2018-04-29T00:10:49.460Z,17.12
2018-04-29T00:11:15.594Z,17.05
2018-04-29T00:11:41.728Z,17.12
2018-04-29T00:12:07.890Z,17.15
2018-04-29T00:12:34.038Z,17.09
2018-04-29T00:13:00.174Z,17.09
2018-04-29T00:13:26.311Z,17.04
2018-04-29T00:13:52.449Z,16.99
2018-04-29T00:14:18.585Z,17.04
2018-04-29T00:14:44.732Z,17.05
2018-04-29T00:15:10.892Z,17.11
2018-04-29T00:15:37.035Z,17.05
2018-04-29T00:16:03.173Z,17.06
2018-04-29T00:16:29.364Z,17.04
2018-04-29T00:16:55.543Z,17.04
2018-04-29T00:17:21.689Z,17.05
2018-04-29T00:17:47.819Z,17.12
2018-04-29T00:18:13.964Z,17.12
2018-04-29T00:18:40.127Z,17.09
2018-04-29T00:19:06.263Z,17.12
2018-04-29T00:19:32.400Z,17.15
2018-04-29T00:19:58.533Z,17.11
2018-04-29T00:20:24.676Z,17.11
2018-04-29T00:20:50.818Z,17.14
2018-04-29T00:21:16.954Z,17.11
2018-04-29T00:21:43.090Z,17.12
2018-04-29T00:22:09.256Z,17.08
2018-04-29T00:22:35.397Z,17.08
2018-04-29T00:23:01.537Z,17.16
2018-04-29T00:23:27.678Z,17.11
2018-04-29T00:23:53.821Z,17.06
2018-04-29T00:24:19.982Z,17.06
2018-04-29T00:24:46.150Z,17.06
2018-04-29T00:25:12.292Z,17.09
2018-04-29T00:25:38.426Z,17.04
2018-04-29T00:26:04.569Z,17.02
2018-04-29T00:26:30.707Z,16.99
2018-04-29T00:26:56.849Z,16.97
2018-04-29T00:27:22.985Z,17.05
2018-04-29T00:27:49.118Z,17.11
2018-04-29T00:28:15.281Z,17.06
2018-04-29T00:28:41.446Z,17.09
2018-04-29T00:29:07.587Z,17.01
2018-04-29T00:29:33.721Z,16.99
2018-04-29T00:29:59.907Z,17.04
2018-04-29T00:30:26.068Z,17.04
2018-04-29T00:30:52.212Z,17.04
2018-04-29T00:31:18.350Z,16.96
2018-04-29T00:31:44.488Z,17.06
2018-04-29T00:32:10.637Z,16.96
2018-04-29T00:32:36.789Z,17.05
2018-04-29T00:33:02.921Z,17.04
2018-04-29T00:33:29.055Z,17.02
2018-04-29T00:33:55.207Z,16.99
2018-04-29T00:34:21.340Z,16.97
2018-04-29T00:34:47.512Z,17.04
2018-04-29T00:35:13.643Z,16.94
2018-04-29T00:35:39.785Z,16.99
2018-04-29T00:36:05.917Z,17.05
2018-04-29T00:36:32.060Z,16.96
2018-04-29T00:36:58.199Z,16.99
2018-04-29T00:37:24.365Z,17.04
2018-04-29T00:37:50.501Z,16.96
2018-04-29T00:38:16.647Z,16.89
2018-04-29T00:38:42.843Z,16.97
2018-04-29T00:39:08.957Z,17.01
2018-04-29T00:39:35.094Z,16.84
2018-04-29T00:40:01.233Z,16.83
2018-04-29T00:40:27.381Z,16.94
2018-04-29T00:40:53.566Z,16.87
2018-04-29T00:41:19.704Z,16.83
2018-04-29T00:41:45.842Z,16.93
2018-04-29T00:42:11.983Z,16.93
2018-04-29T00:42:38.124Z,16.89
2018-04-29T00:43:04.281Z,16.9
2018-04-29T00:43:30.442Z,16.89
2018-04-29T00:43:56.605Z,16.89
2018-04-29T00:44:22.759Z,16.89
2018-04-29T00:44:48.895Z,16.96
2018-04-29T00:45:15.035Z,16.9
2018-04-29T00:45:41.170Z,16.99
2018-04-29T00:46:07.316Z,16.99
2018-04-29T00:46:33.471Z,16.99
2018-04-29T00:46:59.613Z,17.01
2018-04-29T00:47:25.754Z,16.97
2018-04-29T00:47:51.915Z,17.05
2018-04-29T00:48:18.057Z,17.02
2018-04-29T00:48:44.236Z,17.01
2018-04-29T00:49:10.377Z,16.94
2018-04-29T00:49:36.516Z,17.01
2018-04-29T00:50:02.657Z,17.01
2018-04-29T00:50:28.792Z,16.94
2018-04-29T00:50:54.978Z,16.93
2018-04-29T00:51:21.128Z,16.87
2018-04-29T00:51:47.266Z,16.99
2018-04-29T00:52:13.406Z,16.93
2018-04-29T00:52:39.549Z,16.93
2018-04-29T00:53:05.689Z,16.97
2018-04-29T00:53:31.824Z,16.97
2018-04-29T00:53:57.965Z,16.96
2018-04-29T00:54:24.111Z,16.93
2018-04-29T00:54:50.242Z,17.02
2018-04-29T00:55:16.383Z,16.9
2018-04-29T00:55:42.523Z,16.94
2018-04-29T00:56:08.665Z,16.9
2018-04-29T00:56:34.798Z,16.91
2018-04-29T00:57:00.938Z,16.9
2018-04-29T00:57:27.076Z,16.94
2018-04-29T00:57:53.218Z,16.84
2018-04-29T00:58:19.363Z,16.89
2018-04-29T00:58:45.507Z,16.9
2018-04-29T00:59:11.640Z,17.01
2018-04-29T00:59:37.776Z,17.05
2018-04-29T01:00:03.917Z,16.99
2018-04-29T01:00:30.056Z,17.06
2018-04-29T01:00:56.193Z,17.01
2018-04-29T01:01:22.332Z,17.02
2018-04-29T01:01:48.472Z,17.08
2018-04-29T01:02:14.640Z,16.94
2018-04-29T01:02:40.775Z,17.06
2018-04-29T01:03:06.913Z,17.05
2018-04-29T01:03:33.054Z,17.02
2018-04-29T01:03:59.192Z,17.04
2018-04-29T01:04:25.330Z,16.97
2018-04-29T01:04:51.490Z,16.96
2018-04-29T01:05:17.652Z,17.01
2018-04-29T01:05:43.788Z,17.01
2018-04-29T01:06:09.978Z,16.97
2018-04-29T01:06:36.124Z,17.04
2018-04-29T01:07:02.284Z,16.94
2018-04-29T01:07:28.424Z,17.05
2018-04-29T01:07:54.565Z,17.08
2018-04-29T01:08:20.705Z,17.02
2018-04-29T01:08:46.865Z,17.01
2018-04-29T01:09:13.002Z,17.01
2018-04-29T01:09:39.148Z,16.99
2018-04-29T01:10:05.289Z,17.02
2018-04-29T01:10:31.435Z,17.01
2018-04-29T01:10:57.578Z,16.97
2018-04-29T01:11:23.714Z,16.9
2018-04-29T01:11:49.853Z,16.93
2018-04-29T01:12:16.006Z,16.9
2018-04-29T01:12:42.145Z,16.93
2018-04-29T01:13:08.313Z,16.9
2018-04-29T01:13:34.455Z,16.97
2018-04-29T01:14:00.620Z,16.87
2018-04-29T01:14:26.763Z,16.91
2018-04-29T01:14:52.896Z,16.87
2018-04-29T01:15:19.038Z,16.9
2018-04-29T01:15:45.178Z,16.9
2018-04-29T01:16:11.318Z,16.87
2018-04-29T01:16:37.453Z,16.94
2018-04-29T01:17:03.597Z,16.96
2018-04-29T01:17:29.730Z,16.83
2018-04-29T01:17:55.865Z,16.87
2018-04-29T01:18:22.013Z,16.86
2018-04-29T01:18:48.146Z,16.79
2018-04-29T01:19:14.315Z,16.86
2018-04-29T01:19:40.449Z,16.9
2018-04-29T01:20:06.599Z,16.97
2018-04-29T01:20:32.785Z,16.87
2018-04-29T01:20:58.946Z,16.91
2018-04-29T01:21:25.091Z,16.86
2018-04-29T01:21:51.228Z,16.9
2018-04-29T01:22:17.367Z,16.87
2018-04-29T01:22:43.510Z,16.84
2018-04-29T01:23:09.713Z,16.83
2018-04-29T01:23:35.804Z,16.75
2018-04-29T01:24:01.948Z,16.84
2018-04-29T01:24:28.086Z,16.78
2018-04-29T01:24:54.226Z,16.74
2018-04-29T01:25:20.366Z,16.72
2018-04-29T01:25:46.500Z,16.76
2018-04-29T01:26:12.659Z,16.75
2018-04-29T01:26:38.807Z,16.78
2018-04-29T01:27:04.940Z,16.72
2018-04-29T01:27:31.083Z,16.81
2018-04-29T01:27:57.231Z,16.76
2018-04-29T01:28:23.362Z,16.76
2018-04-29T01:28:49.497Z,16.86
2018-04-29T01:29:15.667Z,16.78
2018-04-29T01:29:41.807Z,16.83
2018-04-29T01:30:07.942Z,16.76
2018-04-29T01:30:34.076Z,16.74
2018-04-29T01:31:00.237Z,16.72
2018-04-29T01:31:26.382Z,16.76
2018-04-29T01:31:52.524Z,16.74
2018-04-29T01:32:18.688Z,16.78
2018-04-29T01:32:44.851Z,16.76
2018-04-29T01:33:10.983Z,16.75
2018-04-29T01:33:37.125Z,16.74
2018-04-29T01:34:03.267Z,16.64
2018-04-29T01:34:29.430Z,16.68
2018-04-29T01:34:55.569Z,16.68
2018-04-29T01:35:21.705Z,16.68
2018-04-29T01:35:47.849Z,16.57
2018-04-29T01:36:14.072Z,16.58
2018-04-29T01:36:40.154Z,16.58
2018-04-29T01:37:06.296Z,16.61
2018-04-29T01:37:32.445Z,16.5
2018-04-29T01:37:58.580Z,16.61
2018-04-29T01:38:24.753Z,16.57
2018-04-29T01:38:50.883Z,16.57
2018-04-29T01:39:17.027Z,16.58
2018-04-29T01:39:43.190Z,16.57
2018-04-29T01:40:09.327Z,16.54
2018-04-29T01:40:35.464Z,16.56
2018-04-29T01:41:01.606Z,16.53
2018-04-29T01:41:27.730Z,16.54
2018-04-29T01:41:53.872Z,16.53
2018-04-29T01:42:20.013Z,16.47
2018-04-29T01:42:46.154Z,16.5
2018-04-29T01:43:12.317Z,16.43
2018-04-29T01:43:38.450Z,16.56
2018-04-29T01:44:04.596Z,16.54
2018-04-29T01:44:30.733Z,16.53
2018-04-29T01:44:56.873Z,16.53
2018-04-29T01:45:23.010Z,16.47
2018-04-29T01:45:49.148Z,16.51
2018-04-29T01:46:15.283Z,16.41
2018-04-29T01:46:41.425Z,16.47
2018-04-29T01:47:07.565Z,16.53
2018-04-29T01:47:33.759Z,16.53
2018-04-29T01:47:59.896Z,16.54
2018-04-29T01:48:26.030Z,16.51
2018-04-29T01:48:52.201Z,16.43
2018-04-29T01:49:18.336Z,16.5
2018-04-29T01:49:44.479Z,16.49
2018-04-29T01:50:10.672Z,16.43
2018-04-29T01:50:36.780Z,16.53
2018-04-29T01:51:02.909Z,16.53
2018-04-29T01:51:29.070Z,16.5
2018-04-29T01:51:55.214Z,16.53
2018-04-29T01:52:21.378Z,16.54
2018-04-29T01:52:47.512Z,16.57
2018-04-29T01:53:13.648Z,16.51
2018-04-29T01:53:39.786Z,16.51
2018-04-29T01:54:05.954Z,16.53
2018-04-29T01:54:32.063Z,16.53
2018-04-29T01:54:58.197Z,16.47
2018-04-29T01:55:24.338Z,16.51
2018-04-29T01:55:50.481Z,16.43
2018-04-29T01:56:16.622Z,16.51
2018-04-29T01:56:42.757Z,16.5
2018-04-29T01:57:08.897Z,16.47
2018-04-29T01:57:35.033Z,16.5
2018-04-29T01:58:01.197Z,16.47
2018-04-29T01:58:27.362Z,16.49
2018-04-29T01:58:53.497Z,16.47
2018-04-29T01:59:19.667Z,16.46
2018-04-29T01:59:45.850Z,16.47
2018-04-29T02:00:11.994Z,16.49
2018-04-29T02:00:38.126Z,16.5
2018-04-29T02:01:04.293Z,16.38
2018-04-29T02:01:30.428Z,16.57
2018-04-29T02:01:56.594Z,16.49
2018-04-29T02:02:22.732Z,16.54
2018-04-29T02:02:48.866Z,16.42
2018-04-29T02:03:15.002Z,16.49
2018-04-29T02:03:41.144Z,16.46
2018-04-29T02:04:07.287Z,16.42
2018-04-29T02:04:33.444Z,16.47
2018-04-29T02:04:59.607Z,16.39
2018-04-29T02:05:25.745Z,16.36
2018-04-29T02:05:51.889Z,16.41
2018-04-29T02:06:18.029Z,16.46
2018-04-29T02:06:44.192Z,16.42
2018-04-29T02:07:10.323Z,16.43
2018-04-29T02:07:36.463Z,16.46
2018-04-29T02:08:02.600Z,16.42
2018-04-29T02:08:28.742Z,16.46
2018-04-29T02:08:55.171Z,16.41
2018-04-29T02:09:21.295Z,16.39
2018-04-29T02:09:47.435Z,16.39
2018-04-29T02:10:13.574Z,16.41
2018-04-29T02:10:39.708Z,16.49
2018-04-29T02:11:06.139Z,16.43
2018-04-29T02:11:32.302Z,16.42
2018-04-29T02:11:58.937Z,16.41
2018-04-29T02:12:26.197Z,16.38
2018-04-29T02:12:53.709Z,16.41
2018-04-29T02:13:20.148Z,16.36
2018-04-29T02:13:47.111Z,16.35
2018-04-29T02:14:13.672Z,16.29
2018-04-29T02:14:39.936Z,16.26
2018-04-29T02:15:06.071Z,16.28
2018-04-29T02:15:32.209Z,16.28
2018-04-29T02:15:58.346Z,16.28
2018-04-29T02:16:24.534Z,16.29
2018-04-29T02:16:50.712Z,16.26
2018-04-29T02:17:16.943Z,16.24
2018-04-29T02:17:43.142Z,16.23
2018-04-29T02:18:09.247Z,16.2
2018-04-29T02:18:35.677Z,16.17
2018-04-29T02:19:01.813Z,16.21
2018-04-29T02:19:28.048Z,16.24
2018-04-29T02:19:54.196Z,16.26
2018-04-29T02:20:20.333Z,16.17
2018-04-29T02:20:46.474Z,16.15
2018-04-29T02:21:12.639Z,16.16
2018-04-29T02:21:39.792Z,16.12
2018-04-29T02:22:08.187Z,16.16
2018-04-29T02:22:36.678Z,16.13
2018-04-29T02:23:04.991Z,16.15
2018-04-29T02:23:33.352Z,16.16
2018-04-29T02:24:01.539Z,16.2
2018-04-29T02:24:29.690Z,16.2
2018-04-29T02:24:58.001Z,16.13
2018-04-29T02:25:26.337Z,16.17
2018-04-29T02:25:54.543Z,16.16
2018-04-29T02:26:22.785Z,16.26
2018-04-29T02:26:51.157Z,16.2
2018-04-29T02:27:19.626Z,16.13
2018-04-29T02:27:47.967Z,16.13
2018-04-29T02:28:16.323Z,16.12
2018-04-29T02:28:44.566Z,16.12
2018-04-29T02:29:12.841Z,16.1
2018-04-29T02:29:40.718Z,16.09
2018-04-29T02:30:08.669Z,16.1
2018-04-29T02:30:36.633Z,16.16
2018-04-29T02:31:04.804Z,16.09
2018-04-29T02:31:32.363Z,16.04
2018-04-29T02:32:00.580Z,16.12
2018-04-29T02:32:28.792Z,16.04
2018-04-29T02:32:54.891Z,16.08
2018-04-29T02:33:21.052Z,15.91
2018-04-29T02:33:47.188Z,15.95
2018-04-29T02:34:13.362Z,15.88
2018-04-29T02:34:39.538Z,15.92
2018-04-29T02:35:05.697Z,15.83
2018-04-29T02:35:31.884Z,15.75
2018-04-29T02:35:58.053Z,15.68
2018-04-29T02:36:24.189Z,15.59
2018-04-29T02:36:50.358Z,15.57
2018-04-29T02:37:16.510Z,15.52
2018-04-29T02:37:42.655Z,15.54
2018-04-29T02:38:08.841Z,15.43
2018-04-29T02:38:35.006Z,15.43
2018-04-29T02:39:01.146Z,15.46
2018-04-29T02:39:27.324Z,15.43
2018-04-29T02:39:53.496Z,15.49
2018-04-29T02:40:19.635Z,15.42
2018-04-29T02:40:45.772Z,15.35
2018-04-29T02:41:11.902Z,15.47
2018-04-29T02:41:38.043Z,15.47
2018-04-29T02:42:04.186Z,15.4
2018-04-29T02:42:30.323Z,15.36
2018-04-29T02:42:56.493Z,15.43
2018-04-29T02:43:22.630Z,15.36
2018-04-29T02:43:48.838Z,15.36
2018-04-29T02:44:15.023Z,15.44
2018-04-29T02:44:41.185Z,15.37
2018-04-29T02:45:07.341Z,15.43
2018-04-29T02:45:33.495Z,15.31
2018-04-29T02:45:59.635Z,15.49
2018-04-29T02:46:25.797Z,15.39
2018-04-29T02:46:51.976Z,15.4
2018-04-29T02:47:18.116Z,15.43
2018-04-29T02:47:44.275Z,15.42
2018-04-29T02:48:10.436Z,15.43
2018-04-29T02:48:36.623Z,15.47
2018-04-29T02:49:02.780Z,15.46
2018-04-29T02:49:28.948Z,15.4
2018-04-29T02:49:55.092Z,15.47
2018-04-29T02:50:21.225Z,15.42
2018-04-29T02:50:47.369Z,15.46
2018-04-29T02:51:13.503Z,15.39
2018-04-29T02:51:39.671Z,15.44
2018-04-29T02:52:05.861Z,15.43
2018-04-29T02:52:31.996Z,15.44
2018-04-29T02:52:58.167Z,15.44
2018-04-29T02:53:24.299Z,15.43
2018-04-29T02:53:50.447Z,15.43
2018-04-29T02:54:16.610Z,15.49
2018-04-29T02:54:42.748Z,15.43
2018-04-29T02:55:08.906Z,15.43
2018-04-29T02:55:35.089Z,15.44
2018-04-29T02:56:01.222Z,15.43
2018-04-29T02:56:27.410Z,15.42
2018-04-29T02:56:53.555Z,15.47
2018-04-29T02:57:19.711Z,15.42
2018-04-29T02:57:45.871Z,15.44
2018-04-29T02:58:12.009Z,15.42
2018-04-29T02:58:38.147Z,15.37
2018-04-29T02:59:04.303Z,15.36
2018-04-29T02:59:30.442Z,15.47
2018-04-29T02:59:56.599Z,15.33
2018-04-29T03:00:22.762Z,15.44
2018-04-29T03:00:48.915Z,15.4
2018-04-29T03:01:15.056Z,15.43
2018-04-29T03:01:41.196Z,15.33
2018-04-29T03:02:07.373Z,15.42
2018-04-29T03:02:33.515Z,15.37
2018-04-29T03:02:59.699Z,15.46
2018-04-29T03:03:25.861Z,15.4
2018-04-29T03:03:52.043Z,15.42
2018-04-29T03:04:18.217Z,15.43
2018-04-29T03:04:44.380Z,15.43
2018-04-29T03:05:10.547Z,15.43
2018-04-29T03:05:36.731Z,15.36
2018-04-29T03:06:02.867Z,15.33
2018-04-29T03:06:29.060Z,15.39
2018-04-29T03:06:55.220Z,15.39
2018-04-29T03:07:21.353Z,15.29
2018-04-29T03:07:47.519Z,15.28
2018-04-29T03:08:13.675Z,15.29
2018-04-29T03:08:39.847Z,15.36
2018-04-29T03:09:05.978Z,15.29
2018-04-29T03:09:32.130Z,15.37
2018-04-29T03:09:58.309Z,15.37
2018-04-29T03:10:24.451Z,15.29
2018-04-29T03:10:50.594Z,15.27
2018-04-29T03:11:16.757Z,15.29
2018-04-29T03:11:42.924Z,15.28
2018-04-29T03:12:09.099Z,15.29
2018-04-29T03:12:35.256Z,15.24
2018-04-29T03:13:01.442Z,15.29
2018-04-29T03:13:27.627Z,15.31
2018-04-29T03:13:53.765Z,15.24
2018-04-29T03:14:19.927Z,15.27
2018-04-29T03:14:46.094Z,15.25
2018-04-29T03:15:12.258Z,15.35
2018-04-29T03:15:38.400Z,15.31
2018-04-29T03:16:04.533Z,15.27
2018-04-29T03:16:30.672Z,15.29
2018-04-29T03:16:56.849Z,15.31
2018-04-29T03:17:22.984Z,15.29
2018-04-29T03:17:49.122Z,15.28
2018-04-29T03:18:15.280Z,15.17
2018-04-29T03:18:41.426Z,15.22
2018-04-29T03:19:07.567Z,15.11
2018-04-29T03:19:33.706Z,15.11
2018-04-29T03:19:59.838Z,15.17
2018-04-29T03:20:25.975Z,15.15
2018-04-29T03:20:52.117Z,15.14
2018-04-29T03:21:18.253Z,15.24
2018-04-29T03:21:44.396Z,15.25
2018-04-29T03:22:10.546Z,15.27
2018-04-29T03:22:36.690Z,15.17
2018-04-29T03:23:02.828Z,15.21
2018-04-29T03:23:28.967Z,15.17
2018-04-29T03:23:55.107Z,15.14
2018-04-29T03:24:21.240Z,15.18
2018-04-29T03:24:47.389Z,15.1
2018-04-29T03:25:13.520Z,15.07
2018-04-29T03:25:39.662Z,15.15
2018-04-29T03:26:05.794Z,15.11
2018-04-29T03:26:31.984Z,15.09
2018-04-29T03:26:58.123Z,15.06
2018-04-29T03:27:24.258Z,15.11
2018-04-29T03:27:50.396Z,15
2018-04-29T03:28:16.541Z,15.06
2018-04-29T03:28:42.679Z,15.04
2018-04-29T03:29:08.818Z,15.06
2018-04-29T03:29:34.956Z,14.99
2018-04-29T03:30:01.097Z,15
2018-04-29T03:30:27.262Z,14.97
2018-04-29T03:30:53.424Z,14.92
2018-04-29T03:31:19.594Z,15.03
2018-04-29T03:31:45.795Z,14.96
2018-04-29T03:32:11.934Z,14.94
2018-04-29T03:32:38.080Z,14.97
2018-04-29T03:33:04.215Z,14.97
2018-04-29T03:33:30.356Z,14.99
2018-04-29T03:33:56.487Z,14.88
2018-04-29T03:34:22.628Z,14.91
2018-04-29T03:34:48.764Z,14.89
2018-04-29T03:35:14.901Z,14.84
2018-04-29T03:35:41.036Z,14.89
2018-04-29T03:36:07.200Z,14.85
2018-04-29T03:36:33.339Z,14.86
2018-04-29T03:36:59.487Z,14.84
2018-04-29T03:37:25.622Z,14.86
2018-04-29T03:37:51.762Z,14.86
2018-04-29T03:38:17.889Z,14.86
2018-04-29T03:38:44.050Z,14.78
2018-04-29T03:39:10.196Z,14.88
2018-04-29T03:39:36.330Z,14.84
2018-04-29T03:40:02.466Z,14.85
2018-04-29T03:40:28.609Z,14.81
2018-04-29T03:40:54.768Z,14.84
2018-04-29T03:41:20.924Z,14.77
2018-04-29T03:41:47.065Z,14.72
2018-04-29T03:42:13.212Z,14.65
2018-04-29T03:42:39.364Z,14.78
2018-04-29T03:43:05.502Z,14.77
2018-04-29T03:43:31.633Z,14.66
2018-04-29T03:43:57.799Z,14.65
2018-04-29T03:44:23.931Z,14.7
2018-04-29T03:44:50.076Z,14.72
2018-04-29T03:45:16.208Z,14.72
2018-04-29T03:45:42.398Z,14.7
2018-04-29T03:46:08.537Z,14.72
2018-04-29T03:46:34.691Z,14.79
2018-04-29T03:47:00.840Z,14.72
2018-04-29T03:47:26.984Z,14.72
2018-04-29T03:47:53.139Z,14.72
2018-04-29T03:48:19.294Z,14.78
2018-04-29T03:48:45.432Z,14.77
2018-04-29T03:49:11.568Z,14.73
2018-04-29T03:49:37.708Z,14.69
2018-04-29T03:50:03.853Z,14.78
2018-04-29T03:50:29.981Z,14.73
2018-04-29T03:50:56.154Z,14.78
2018-04-29T03:51:22.285Z,14.66
2018-04-29T03:51:48.429Z,14.81
2018-04-29T03:52:14.568Z,14.78
2018-04-29T03:52:40.701Z,14.68
2018-04-29T03:53:06.848Z,14.65
2018-04-29T03:53:32.987Z,14.72
2018-04-29T03:53:59.129Z,14.66
2018-04-29T03:54:25.269Z,14.66
2018-04-29T03:54:51.402Z,14.7
2018-04-29T03:55:17.545Z,14.65
2018-04-29T03:55:43.683Z,14.66
2018-04-29T03:56:09.852Z,14.66
2018-04-29T03:56:35.991Z,14.68
2018-04-29T03:57:02.135Z,14.69
2018-04-29T03:57:28.285Z,14.68
2018-04-29T03:57:54.433Z,14.63
2018-04-29T03:58:20.563Z,14.65
2018-04-29T03:58:46.706Z,14.69
2018-04-29T03:59:12.849Z,14.73
2018-04-29T03:59:38.985Z,14.72
2018-04-29T04:00:05.137Z,14.73
2018-04-29T04:00:31.275Z,14.62
2018-04-29T04:00:57.419Z,14.62
2018-04-29T04:01:23.607Z,14.62
2018-04-29T04:01:51.283Z,14.54
2018-04-29T04:02:15.926Z,14.6
2018-04-29T04:02:42.160Z,14.59
2018-04-29T04:03:08.251Z,14.62
2018-04-29T04:03:34.389Z,14.58
2018-04-29T04:04:00.527Z,14.65
2018-04-29T04:04:26.662Z,14.63
2018-04-29T04:04:52.810Z,14.62
2018-04-29T04:05:18.963Z,14.59
2018-04-29T04:05:45.100Z,14.6
2018-04-29T04:06:11.239Z,14.69
2018-04-29T04:06:37.367Z,14.66
2018-04-29T04:07:03.527Z,14.68
2018-04-29T04:07:29.673Z,14.55
2018-04-29T04:07:55.811Z,14.68
2018-04-29T04:08:21.941Z,14.53
2018-04-29T04:08:48.078Z,14.54
2018-04-29T04:09:14.228Z,14.53
2018-04-29T04:09:40.433Z,14.68
2018-04-29T04:10:06.494Z,14.58
2018-04-29T04:10:32.628Z,14.53
2018-04-29T04:10:58.772Z,14.55
2018-04-29T04:11:24.909Z,14.62
2018-04-29T04:11:51.053Z,14.53
2018-04-29T04:12:17.185Z,14.47
2018-04-29T04:12:43.345Z,14.54
2018-04-29T04:13:09.508Z,14.53
2018-04-29T04:13:35.651Z,14.53
2018-04-29T04:14:01.791Z,14.55
2018-04-29T04:14:27.958Z,14.53
2018-04-29T04:14:54.093Z,14.58
2018-04-29T04:15:20.237Z,14.6
2018-04-29T04:15:46.369Z,14.6
2018-04-29T04:16:12.506Z,14.54
2018-04-29T04:16:38.647Z,14.55
2018-04-29T04:17:04.781Z,14.54
2018-04-29T04:17:30.956Z,14.65
2018-04-29T04:17:57.115Z,14.63
2018-04-29T04:18:23.253Z,14.65
2018-04-29T04:18:49.419Z,14.65
2018-04-29T04:19:15.559Z,14.62
2018-04-29T04:19:41.692Z,14.6
2018-04-29T04:20:07.834Z,14.65
2018-04-29T04:20:33.970Z,14.69
2018-04-29T04:21:00.129Z,14.58
2018-04-29T04:21:26.296Z,14.48
2018-04-29T04:21:52.441Z,14.55
2018-04-29T04:22:18.577Z,14.55
2018-04-29T04:22:44.740Z,14.53
2018-04-29T04:23:10.875Z,14.53
2018-04-29T04:23:37.077Z,14.53
2018-04-29T04:24:03.144Z,14.54
2018-04-29T04:24:29.292Z,14.45
2018-04-29T04:24:55.521Z,14.48
2018-04-29T04:25:21.595Z,14.36
2018-04-29T04:25:47.737Z,14.33
2018-04-29T04:26:13.871Z,14.41
2018-04-29T04:26:40.011Z,14.32
2018-04-29T04:27:06.142Z,14.3
2018-04-29T04:27:32.310Z,14.23
2018-04-29T04:27:58.461Z,14.23
2018-04-29T04:28:24.625Z,14.22
2018-04-29T04:28:50.764Z,14.23
2018-04-29T04:29:16.935Z,14.29
2018-04-29T04:29:43.111Z,14.25
2018-04-29T04:30:09.251Z,14.25
2018-04-29T04:30:35.383Z,14.2
2018-04-29T04:31:01.528Z,14.26
2018-04-29T04:31:27.657Z,14.23
2018-04-29T04:31:53.794Z,14.28
2018-04-29T04:32:19.927Z,14.2
2018-04-29T04:32:46.097Z,14.29
2018-04-29T04:33:12.228Z,14.3
2018-04-29T04:33:38.363Z,14.4
2018-04-29T04:34:04.518Z,14.37
2018-04-29T04:34:30.641Z,14.35
2018-04-29T04:34:56.810Z,14.43
2018-04-29T04:35:22.977Z,14.33
2018-04-29T04:35:49.131Z,14.36
2018-04-29T04:36:15.293Z,14.29
2018-04-29T04:36:41.463Z,14.3
2018-04-29T04:37:07.600Z,14.41
2018-04-29T04:37:33.740Z,14.35
2018-04-29T04:37:59.875Z,14.45
2018-04-29T04:38:26.013Z,14.53
2018-04-29T04:38:52.156Z,14.51
2018-04-29T04:39:18.314Z,14.51
2018-04-29T04:39:44.450Z,14.51
2018-04-29T04:40:10.648Z,14.45
2018-04-29T04:40:36.744Z,14.53
2018-04-29T04:41:02.906Z,14.47
2018-04-29T04:41:29.036Z,14.6
2018-04-29T04:41:55.179Z,14.63
2018-04-29T04:42:21.317Z,14.59
2018-04-29T04:42:47.463Z,14.65
2018-04-29T04:43:13.621Z,14.72
2018-04-29T04:43:39.767Z,14.66
2018-04-29T04:44:05.944Z,14.69
2018-04-29T04:44:32.077Z,14.7
2018-04-29T04:44:58.239Z,14.73
2018-04-29T04:45:24.380Z,14.65
2018-04-29T04:45:50.525Z,14.66
2018-04-29T04:46:16.679Z,14.55
2018-04-29T04:46:42.826Z,14.47
2018-04-29T04:47:08.963Z,14.54
2018-04-29T04:47:35.111Z,14.4
2018-04-29T04:48:01.244Z,14.37
2018-04-29T04:48:27.380Z,14.37
2018-04-29T04:48:53.518Z,14.36
2018-04-29T04:49:19.663Z,14.33
2018-04-29T04:49:45.800Z,14.32
2018-04-29T04:50:11.937Z,14.36
2018-04-29T04:50:38.116Z,14.28
2018-04-29T04:51:04.215Z,14.28
2018-04-29T04:51:30.356Z,14.3
2018-04-29T04:51:56.498Z,14.36
2018-04-29T04:52:22.658Z,14.3
2018-04-29T04:52:48.796Z,14.32
2018-04-29T04:53:14.961Z,14.22
2018-04-29T04:53:41.092Z,14.23
2018-04-29T04:54:07.234Z,14.15
2018-04-29T04:54:33.377Z,14.14
2018-04-29T04:54:59.535Z,14.12
2018-04-29T04:55:25.684Z,14.18
2018-04-29T04:55:51.809Z,14.23
2018-04-29T04:56:17.952Z,14.33
2018-04-29T04:56:44.093Z,14.36
2018-04-29T04:57:10.218Z,14.35
2018-04-29T04:57:36.360Z,14.32
2018-04-29T04:58:02.558Z,14.43
2018-04-29T04:58:28.666Z,14.45
2018-04-29T04:58:54.808Z,14.47
2018-04-29T04:59:20.943Z,14.54
2018-04-29T04:59:47.078Z,14.58
2018-04-29T05:00:13.211Z,14.55
2018-04-29T05:00:39.352Z,14.65
2018-04-29T05:01:05.512Z,14.48
2018-04-29T05:01:31.656Z,14.51
2018-04-29T05:01:57.793Z,14.55
2018-04-29T05:02:23.951Z,14.6
2018-04-29T05:02:50.098Z,14.47
2018-04-29T05:03:16.231Z,14.53
2018-04-29T05:03:42.369Z,14.47
2018-04-29T05:04:08.506Z,14.54
2018-04-29T05:04:34.645Z,14.55
2018-04-29T05:05:00.780Z,14.62
2018-04-29T05:05:26.919Z,14.68
2018-04-29T05:05:53.078Z,14.63
2018-04-29T05:06:19.219Z,14.72
2018-04-29T05:06:45.356Z,14.66
2018-04-29T05:07:11.498Z,14.68
2018-04-29T05:07:37.638Z,14.73
2018-04-29T05:08:03.800Z,14.72
2018-04-29T05:08:29.965Z,14.78
2018-04-29T05:08:56.102Z,14.7
2018-04-29T05:09:22.243Z,14.85
2018-04-29T05:09:48.380Z,14.82
2018-04-29T05:10:14.521Z,14.89
2018-04-29T05:10:40.710Z,14.91
2018-04-29T05:11:06.851Z,14.92
2018-04-29T05:11:32.977Z,14.91
2018-04-29T05:11:59.120Z,14.97
2018-04-29T05:12:25.257Z,14.96
2018-04-29T05:12:51.396Z,15
2018-04-29T05:13:17.531Z,15.04
2018-04-29T05:13:43.671Z,15
2018-04-29T05:14:09.805Z,15.03
2018-04-29T05:14:35.945Z,15.07
2018-04-29T05:15:02.080Z,15.11
2018-04-29T05:15:28.262Z,15.07
2018-04-29T05:15:54.429Z,15.11
2018-04-29T05:16:20.597Z,15.06
2018-04-29T05:16:46.777Z,15.1
2018-04-29T05:17:12.913Z,15.1
2018-04-29T05:17:39.094Z,15.18
2018-04-29T05:18:05.261Z,15.11
2018-04-29T05:18:31.403Z,15.14
2018-04-29T05:18:57.538Z,15.09
2018-04-29T05:19:23.681Z,15.11
2018-04-29T05:19:49.815Z,15.11
2018-04-29T05:20:15.957Z,15.17
2018-04-29T05:20:42.103Z,15.1
2018-04-29T05:21:08.239Z,15.19
2018-04-29T05:21:34.373Z,15.19
2018-04-29T05:22:00.518Z,15.1
2018-04-29T05:22:26.655Z,15.11
2018-04-29T05:22:52.823Z,15.15
2018-04-29T05:23:18.956Z,15.15
2018-04-29T05:23:45.097Z,15.25
2018-04-29T05:24:11.235Z,15.29
2018-04-29T05:24:37.404Z,15.27
2018-04-29T05:25:03.567Z,15.27
2018-04-29T05:25:29.706Z,15.27
2018-04-29T05:25:55.847Z,15.31
2018-04-29T05:26:21.987Z,15.27
2018-04-29T05:26:48.118Z,15.29
2018-04-29T05:27:14.263Z,15.25
2018-04-29T05:27:40.407Z,15.28
2018-04-29T05:28:06.543Z,15.22
2018-04-29T05:28:32.706Z,15.27
2018-04-29T05:28:58.847Z,15.25
2018-04-29T05:29:24.980Z,15.35
2018-04-29T05:29:51.122Z,15.28
2018-04-29T05:30:17.321Z,15.27
2018-04-29T05:30:43.475Z,15.31
2018-04-29T05:31:09.612Z,15.33
2018-04-29T05:31:35.749Z,15.28
2018-04-29T05:32:01.918Z,15.28
2018-04-29T05:32:28.053Z,15.27
2018-04-29T05:32:54.191Z,15.39
2018-04-29T05:33:20.350Z,15.35
2018-04-29T05:33:46.488Z,15.35
2018-04-29T05:34:12.625Z,15.43
2018-04-29T05:34:38.766Z,15.4
2018-04-29T05:35:04.899Z,15.36
2018-04-29T05:35:31.063Z,15.47
2018-04-29T05:35:57.232Z,15.4
2018-04-29T05:36:23.371Z,15.35
2018-04-29T05:36:49.505Z,15.33
2018-04-29T05:37:15.646Z,15.43
2018-04-29T05:37:41.817Z,15.44
2018-04-29T05:38:07.998Z,15.46
2018-04-29T05:38:34.134Z,15.43
2018-04-29T05:39:00.266Z,15.47